Time;durP1;ratioP1;P1;durP2;ratioP2;P2;SDS_P1;SDS_P2;PMS_P1;PMS_P2;Temp;Humidity;BMP_temperature;BMP_pressure;BME280_temperature;BME280_humidity;BME280_pressure;Samples;Min_cycle;Max_cycle;Signal;HPM_P1;HPM_P2
2023/03/16 00:02:14;;;;;;;0.00;0.00;;;;;;;2.77;100.00;101758.63;10506478;28;20036;-80
2023/03/16 00:07:16;;;;;;;0.63;0.15;;;;;;;2.65;100.00;101751.00;10534191;28;20442;-80
2023/03/16 00:12:18;;;;;;;0.20;0.20;;;;;;;2.74;100.00;101735.47;10522058;28;20090;-80
2023/03/16 00:17:20;;;;;;;0.00;0.00;;;;;;;2.76;100.00;101713.59;10546410;28;20446;-80
2023/03/16 00:22:28;;;;;;;0.03;0.03;;;;;;;2.70;100.00;101723.34;10540885;28;20487;-80
2023/03/16 00:27:35;;;;;;;0.00;0.00;;;;;;;2.66;100.00;101726.41;10555257;28;20109;-80
2023/03/16 00:32:37;;;;;;;25.73;0.38;;;;;;;2.70;100.00;101733.50;10542869;28;20058;-80
2023/03/16 00:37:41;;;;;;;0.52;0.52;;;;;;;2.71;100.00;101730.19;10511591;28;20048;-80
2023/03/16 00:42:43;;;;;;;4.07;0.38;;;;;;;2.82;100.00;101728.41;10527825;28;20451;-80
2023/03/16 00:47:44;;;;;;;2.40;2.20;;;;;;;2.84;100.00;101735.38;10550925;28;20047;-79
2023/03/16 00:52:47;;;;;;;0.22;0.22;;;;;;;2.81;100.00;101722.41;10523002;28;20105;-80
2023/03/16 00:57:49;;;;;;;0.10;0.10;;;;;;;2.78;100.00;101694.22;10533915;28;20116;-79
2023/03/16 01:02:50;;;;;;;1.08;0.70;;;;;;;2.98;100.00;101689.63;10511711;28;20097;-80
2023/03/16 01:07:52;;;;;;;0.57;0.40;;;;;;;3.02;100.00;101678.88;10544343;28;20126;-81
2023/03/16 01:12:55;;;;;;;0.35;0.28;;;;;;;3.01;100.00;101672.03;10510904;28;20085;-79
2023/03/16 01:17:56;;;;;;;0.00;0.00;;;;;;;3.09;100.00;101677.63;10520686;28;20135;-80
2023/03/16 01:22:58;;;;;;;0.38;0.38;;;;;;;3.14;100.00;101687.38;10501177;28;20032;-80
2023/03/16 01:28:00;;;;;;;0.22;0.20;;;;;;;3.27;100.00;101680.56;10529745;28;20055;-79
2023/03/16 01:33:02;;;;;;;7.43;0.88;;;;;;;3.16;100.00;101660.31;10529134;28;20055;-79
2023/03/16 01:38:04;;;;;;;0.63;0.22;;;;;;;3.21;100.00;101652.13;10520175;28;20052;-79
2023/03/16 01:43:06;;;;;;;0.32;0.32;;;;;;;3.09;100.00;101653.06;10546736;28;20467;-80
2023/03/16 01:48:13;;;;;;;0.17;0.15;;;;;;;3.12;100.00;101635.44;10536593;28;20095;-79
2023/03/16 01:53:15;;;;;;;0.10;0.10;;;;;;;3.16;100.00;101629.78;10510470;28;20461;-80
2023/03/16 01:58:17;;;;;;;0.00;0.00;;;;;;;3.15;100.00;101620.38;10501750;28;20054;-80
2023/03/16 02:03:20;;;;;;;0.08;0.08;;;;;;;3.10;100.00;101624.25;10520955;28;20093;-80
2023/03/16 02:08:27;;;;;;;4.72;0.77;;;;;;;3.13;100.00;101627.03;10535831;28;20051;-80
2023/03/16 02:13:35;;;;;;;0.35;0.35;;;;;;;3.11;100.00;101628.59;10526103;28;20051;-80
2023/03/16 02:18:38;;;;;;;0.00;0.00;;;;;;;3.09;100.00;101622.50;10525284;28;20532;-80
2023/03/16 02:23:42;;;;;;;0.03;0.03;;;;;;;3.10;100.00;101614.09;10514760;28;20052;-80
2023/03/16 02:28:49;;;;;;;0.00;0.00;;;;;;;3.05;100.00;101612.03;10518671;28;20048;-81
2023/03/16 02:33:54;;;;;;;0.25;0.25;;;;;;;3.15;100.00;101611.84;10507796;28;20403;-77
2023/03/16 02:38:56;;;;;;;1.05;0.25;;;;;;;3.17;100.00;101606.06;10507877;28;20053;-78
2023/03/16 02:44:26;;;;;;;0.00;0.00;;;;;;;3.10;100.00;101591.16;10516328;28;20039;-77
2023/03/16 02:49:43;;;;;;;0.00;0.00;;;;;;;3.14;100.00;101593.16;10517286;28;20483;-77
2023/03/16 02:54:45;;;;;;;1.75;1.35;;;;;;;3.16;100.00;101583.06;10537450;28;20044;-78
2023/03/16 02:59:47;;;;;;;0.22;0.22;;;;;;;3.15;100.00;101577.09;10523123;28;20046;-78
2023/03/16 03:04:53;;;;;;;0.45;0.43;;;;;;;3.20;100.00;101571.41;10511412;28;20036;-77
2023/03/16 03:09:57;;;;;;;0.00;0.00;;;;;;;3.09;100.00;101556.28;10542597;28;20047;-78
2023/03/16 03:14:59;;;;;;;0.10;0.10;;;;;;;3.10;100.00;101552.97;10512052;28;20475;-77
2023/03/16 03:20:16;;;;;;;0.00;0.00;;;;;;;3.24;100.00;101553.03;10525327;28;20040;-77
2023/03/16 03:25:42;;;;;;;0.47;0.30;;;;;;;3.25;100.00;101547.13;10526325;28;20032;-77
2023/03/16 03:30:44;;;;;;;1.58;0.90;;;;;;;3.20;100.00;101543.41;10515288;28;20048;-77
2023/03/16 03:35:46;;;;;;;0.32;0.32;;;;;;;3.27;100.00;101538.84;10506120;28;20040;-77
2023/03/16 03:40:50;;;;;;;0.40;0.22;;;;;;;3.26;100.00;101536.16;10526108;28;20044;-77
2023/03/16 03:45:56;;;;;;;0.30;0.30;;;;;;;3.29;100.00;101526.19;10527159;28;20117;-77
2023/03/16 03:50:58;;;;;;;0.08;0.08;;;;;;;3.26;100.00;101529.44;10546439;28;20395;-77
2023/03/16 03:56:26;;;;;;;0.10;0.10;;;;;;;3.26;100.00;101523.44;10522792;28;20051;-78
2023/03/16 04:01:28;;;;;;;0.22;0.22;;;;;;;3.25;100.00;101524.22;10555434;28;20044;-77
2023/03/16 04:06:30;;;;;;;0.20;0.20;;;;;;;3.31;100.00;101522.09;10524106;28;20083;-78
2023/03/16 04:11:32;;;;;;;0.10;0.10;;;;;;;3.44;100.00;101514.47;10518180;28;20132;-77
2023/03/16 04:16:34;;;;;;;1.33;1.02;;;;;;;3.52;100.00;101516.63;10553575;28;20046;-77
2023/03/16 04:21:37;;;;;;;0.22;0.10;;;;;;;3.68;100.00;101521.91;10533408;28;20048;-78
2023/03/16 04:26:40;;;;;;;0.25;0.15;;;;;;;3.62;100.00;101518.94;10519130;28;20052;-77
2023/03/16 04:31:43;;;;;;;0.10;0.10;;;;;;;3.72;100.00;101520.44;10526205;28;20047;-77
2023/03/16 04:36:47;;;;;;;0.10;0.10;;;;;;;3.75;100.00;101508.78;10513005;28;20097;-77
2023/03/16 04:41:50;;;;;;;0.60;0.30;;;;;;;3.86;100.00;101503.47;10531212;28;20478;-77
2023/03/16 04:46:55;;;;;;;0.10;0.10;;;;;;;3.76;100.00;101513.06;10528333;28;20551;-77
2023/03/16 04:52:00;;;;;;;0.20;0.10;;;;;;;3.77;100.00;101496.13;10522993;28;20048;-77
2023/03/16 04:57:03;;;;;;;0.60;0.30;;;;;;;3.69;100.00;101492.22;10525054;28;20059;-77
2023/03/16 05:02:11;;;;;;;0.38;0.30;;;;;;;3.62;100.00;101488.38;10518344;28;20044;-78
2023/03/16 05:07:13;;;;;;;0.50;0.50;;;;;;;3.66;100.00;101485.25;10527109;28;20052;-76
2023/03/16 05:12:21;;;;;;;0.30;0.28;;;;;;;3.61;100.00;101484.09;10518360;28;20551;-77
2023/03/16 05:17:28;;;;;;;0.25;0.25;;;;;;;3.56;100.00;101480.34;10521441;28;20055;-77
2023/03/16 05:22:30;;;;;;;0.00;0.00;;;;;;;3.60;100.00;101469.59;10512765;28;20063;-77
2023/03/16 05:27:49;;;;;;;0.20;0.20;;;;;;;3.48;100.00;101475.66;10543423;28;20057;-77
2023/03/16 05:32:58;;;;;;;0.20;0.20;;;;;;;3.59;100.00;101485.66;10520291;28;20044;-78
2023/03/16 05:38:02;;;;;;;0.52;0.40;;;;;;;3.59;100.00;101483.97;10524513;28;20056;-77
2023/03/16 05:43:06;;;;;;;0.10;0.10;;;;;;;3.51;100.00;101484.28;10519420;28;20040;-77
2023/03/16 05:48:15;;;;;;;0.10;0.10;;;;;;;3.66;100.00;101492.91;10541473;28;20105;-77
2023/03/16 05:53:27;;;;;;;0.43;0.22;;;;;;;3.72;100.00;101475.44;10545462;28;20096;-76
2023/03/16 05:58:33;;;;;;;;;;;;;;;3.74;100.00;101476.44;10536458;28;20075;-77
2023/03/16 06:03:39;;;;;;;0.00;0.00;;;;;;;3.80;100.00;101466.63;10549886;28;20458;-77
2023/03/16 06:08:43;;;;;;;0.00;0.00;;;;;;;3.81;100.00;101472.59;10548172;28;20048;-77
2023/03/16 06:13:45;;;;;;;0.03;0.03;;;;;;;3.81;100.00;101476.03;10520462;28;20411;-77
2023/03/16 06:18:47;;;;;;;1.08;0.40;;;;;;;3.77;100.00;101476.59;10530575;28;20040;-77
2023/03/16 06:23:49;;;;;;;1.17;0.35;;;;;;;3.88;100.00;101481.50;10534355;28;20643;-78
2023/03/16 06:28:53;;;;;;;0.00;0.00;;;;;;;3.98;100.00;101478.75;10531584;28;20036;-77
2023/03/16 06:33:57;;;;;;;0.10;0.10;;;;;;;4.05;100.00;101478.34;10525221;28;20131;-78
2023/03/16 06:38:59;;;;;;;0.00;0.00;;;;;;;4.00;100.00;101474.59;10502582;28;20459;-77
2023/03/16 06:44:11;;;;;;;0.30;0.30;;;;;;;4.28;100.00;101479.72;10493813;28;20049;-77
2023/03/16 06:49:23;;;;;;;0.08;0.08;;;;;;;4.35;100.00;101468.25;10506887;28;20045;-76
2023/03/16 06:54:26;;;;;;;1.10;1.00;;;;;;;4.23;100.00;101487.88;10511619;28;20135;-77
2023/03/16 06:59:28;;;;;;;0.20;0.20;;;;;;;4.32;100.00;101478.25;10508684;28;20049;-77
2023/03/16 07:04:31;;;;;;;0.00;0.00;;;;;;;4.38;100.00;101465.84;10530018;28;20506;-77
2023/03/16 07:09:33;;;;;;;0.10;0.10;;;;;;;4.34;100.00;101479.22;10537066;28;20502;-77
2023/03/16 07:14:39;;;;;;;0.28;0.28;;;;;;;4.56;100.00;101480.53;10562227;27;20044;-77
2023/03/16 07:19:43;;;;;;;0.30;0.28;;;;;;;4.59;100.00;101471.38;10519909;28;20108;-76
2023/03/16 07:24:50;;;;;;;0.00;0.00;;;;;;;4.74;100.00;101471.38;10511472;28;20126;-78
2023/03/16 07:29:53;;;;;;;0.35;0.17;;;;;;;4.78;100.00;101481.78;10528005;28;20079;-76
2023/03/16 07:34:54;;;;;;;1.25;0.20;;;;;;;4.85;100.00;101489.00;10545039;28;20072;-77
2023/03/16 07:40:00;;;;;;;0.35;0.35;;;;;;;4.84;100.00;101477.03;10515669;28;20036;-76
2023/03/16 07:45:04;;;;;;;0.20;0.20;;;;;;;4.78;100.00;101472.44;10526666;28;20117;-77
2023/03/16 07:50:08;;;;;;;0.30;0.22;;;;;;;4.87;100.00;101457.66;10490287;28;20098;-78
2023/03/16 07:55:13;;;;;;;5.35;1.17;;;;;;;5.13;100.00;101471.06;10519064;28;20064;-77
2023/03/16 08:00:19;;;;;;;0.17;0.15;;;;;;;5.37;100.00;101475.78;10542050;28;20036;-77
2023/03/16 08:05:21;;;;;;;0.00;0.00;;;;;;;5.40;100.00;101484.50;10527299;28;20052;-76
2023/03/16 08:10:28;;;;;;;0.35;0.35;;;;;;;5.24;100.00;101484.44;10528923;28;20079;-77
2023/03/16 08:15:37;;;;;;;0.68;0.40;;;;;;;5.32;100.00;101473.00;10526563;28;20071;-77
2023/03/16 08:20:52;;;;;;;2.38;0.57;;;;;;;5.28;100.00;101453.16;10525358;28;20131;-77
2023/03/16 08:25:56;;;;;;;0.10;0.10;;;;;;;5.22;100.00;101450.25;10525266;28;20040;-77
2023/03/16 08:30:59;;;;;;;0.75;0.52;;;;;;;5.03;100.00;101427.91;10565840;28;20453;-78
2023/03/16 08:36:19;;;;;;;2.00;0.43;;;;;;;4.89;100.00;101409.25;10527747;28;20514;-77
2023/03/16 08:41:24;;;;;;;0.10;0.10;;;;;;;5.04;100.00;101394.78;10525408;28;20139;-76
2023/03/16 08:46:27;;;;;;;0.20;0.20;;;;;;;5.04;100.00;101386.25;10522650;28;20051;-77
2023/03/16 08:51:32;;;;;;;0.10;0.05;;;;;;;5.21;100.00;101376.97;10515165;28;20551;-77
2023/03/16 08:56:34;;;;;;;2.35;0.65;;;;;;;5.06;100.00;101367.66;10511497;28;20491;-77
2023/03/16 09:01:35;;;;;;;0.10;0.10;;;;;;;5.12;100.00;101339.03;10556318;28;20403;-77
2023/03/16 09:06:38;;;;;;;1.13;0.55;;;;;;;5.15;100.00;101328.09;10523995;28;20055;-78
2023/03/16 09:11:40;;;;;;;0.00;0.00;;;;;;;5.35;100.00;101296.84;10541758;28;20038;-78
2023/03/16 09:16:43;;;;;;;0.10;0.10;;;;;;;5.26;100.00;101305.69;10517001;28;20499;-77
2023/03/16 09:21:47;;;;;;;0.13;0.13;;;;;;;5.32;100.00;101273.72;10532737;28;20064;-77
2023/03/16 09:26:49;;;;;;;0.00;0.00;;;;;;;5.22;100.00;101276.56;10523990;28;20140;-77
2023/03/16 09:31:51;;;;;;;0.00;0.00;;;;;;;5.44;100.00;101277.69;10541302;28;20149;-77
2023/03/16 09:36:54;;;;;;;0.32;0.25;;;;;;;5.52;100.00;101277.28;10533123;28;20059;-77
2023/03/16 09:42:08;;;;;;;0.00;0.00;;;;;;;5.66;100.00;101298.47;10535953;28;20082;-77
2023/03/16 09:47:11;;;;;;;0.75;0.40;;;;;;;5.90;100.00;101285.19;10526857;28;20400;-77
2023/03/16 09:53:03;;;;;;;0.52;0.32;;;;;;;5.96;100.00;101295.75;10519281;28;20048;-77
2023/03/16 09:58:15;;;;;;;0.10;0.10;;;;;;;6.00;100.00;101305.34;10494455;28;20461;-77
2023/03/16 10:03:24;;;;;;;0.50;0.30;;;;;;;6.32;100.00;101303.53;10524900;28;20040;-77
2023/03/16 10:08:43;;;;;;;0.50;0.50;;;;;;;6.44;100.00;101300.69;10521561;28;20052;-77
2023/03/16 10:14:19;;;;;;;0.22;0.10;;;;;;;6.32;100.00;101326.56;10531165;28;20039;-77
2023/03/16 10:19:33;;;;;;;1.55;0.50;;;;;;;6.54;100.00;101322.50;10510659;28;20315;-77
2023/03/16 10:24:55;;;;;;;0.30;0.30;;;;;;;6.72;100.00;101337.88;10558507;27;20094;-77
2023/03/16 10:30:00;;;;;;;0.35;0.15;;;;;;;6.70;100.00;101324.16;10519798;28;20051;-77
2023/03/16 10:35:19;;;;;;;0.68;0.63;;;;;;;6.62;100.00;101320.34;10537625;28;20040;-77
2023/03/16 10:40:22;;;;;;;0.60;0.20;;;;;;;6.82;100.00;101313.59;10513591;28;20226;-78
2023/03/16 10:45:33;;;;;;;0.38;0.32;;;;;;;6.80;100.00;101325.47;10552217;28;20077;-77
2023/03/16 10:50:35;;;;;;;0.20;0.20;;;;;;;6.96;100.00;101335.63;10537002;28;20056;-78
2023/03/16 10:55:42;;;;;;;0.38;0.35;;;;;;;7.33;100.00;101327.91;10526952;28;20124;-77
2023/03/16 11:00:45;;;;;;;0.30;0.30;;;;;;;7.60;100.00;101338.53;10542249;28;20089;-76
2023/03/16 11:05:47;;;;;;;0.03;0.03;;;;;;;8.05;100.00;101337.94;10538582;28;20396;-76
2023/03/16 11:11:13;;;;;;;1.10;0.30;;;;;;;8.09;100.00;101342.38;10541236;28;20044;-77
2023/03/16 11:16:24;;;;;;;0.43;0.30;;;;;;;8.84;100.00;101344.66;10534160;28;20043;-77
2023/03/16 11:21:40;;;;;;;1.05;0.30;;;;;;;8.87;100.00;101360.22;10534888;28;20052;-77
2023/03/16 11:26:44;;;;;;;0.22;0.22;;;;;;;8.89;100.00;101374.00;10553561;28;20043;-77
2023/03/16 11:32:21;;;;;;;0.10;0.10;;;;;;;9.47;100.00;101383.91;10566538;27;20526;-77
2023/03/16 11:37:35;;;;;;;0.08;0.08;;;;;;;10.14;100.00;101382.97;10536619;28;20105;-77
2023/03/16 11:42:58;;;;;;;0.25;0.25;;;;;;;9.91;100.00;101391.56;10531892;28;20040;-77
2023/03/16 11:48:43;;;;;;;0.10;0.10;;;;;;;10.45;100.00;101384.06;10541779;28;20048;-77
2023/03/16 11:53:45;;;;;;;0.32;0.20;;;;;;;10.15;100.00;101387.28;10527291;28;20491;-78
2023/03/16 11:58:59;;;;;;;0.05;0.03;;;;;;;10.19;100.00;101371.94;10524160;28;20036;-82
2023/03/16 12:04:19;;;;;;;0.10;0.10;;;;;;;9.97;100.00;101366.91;10541167;28;20467;-82
2023/03/16 12:09:57;;;;;;;0.55;0.20;;;;;;;9.74;100.00;101362.63;10536325;28;20247;-81
2023/03/16 12:15:20;;;;;;;0.15;0.15;;;;;;;9.62;100.00;101363.06;10522684;28;20514;-81
2023/03/16 12:20:30;;;;;;;0.10;0.10;;;;;;;9.75;100.00;101343.81;10523315;28;20048;-80
2023/03/16 12:25:36;;;;;;;0.05;0.05;;;;;;;9.75;100.00;101336.94;10511018;28;20054;-82
2023/03/16 12:30:45;;;;;;;0.08;0.08;;;;;;;9.52;100.00;101336.13;10504729;28;20074;-82
2023/03/16 12:36:31;;;;;;;0.73;0.52;;;;;;;9.49;100.00;101336.84;10520385;28;20043;-83
2023/03/16 12:41:46;;;;;;;0.13;0.13;;;;;;;9.70;100.00;101335.91;10493647;28;20052;-81
2023/03/16 12:46:52;;;;;;;0.70;0.28;;;;;;;10.18;100.00;101328.97;10536686;28;20479;-83
2023/03/16 12:52:01;;;;;;;2.63;0.80;;;;;;;10.02;100.00;101322.44;10520336;28;20056;-81
2023/03/16 12:57:06;;;;;;;0.50;0.30;;;;;;;9.76;100.00;101307.81;10522350;28;20045;-80
2023/03/16 13:02:23;;;;;;;2.85;0.28;;;;;;;9.93;100.00;101312.69;10533207;28;20094;-81
2023/03/16 13:07:29;;;;;;;0.40;0.40;;;;;;;10.71;100.00;101303.28;10496912;28;20491;-82
2023/03/16 13:12:37;;;;;;;1.73;0.80;;;;;;;11.28;100.00;101305.03;10513741;28;20051;-81
2023/03/16 13:17:38;;;;;;;1.10;0.60;;;;;;;11.89;100.00;101279.16;10517415;28;20395;-82
2023/03/16 13:22:48;;;;;;;5.03;1.92;;;;;;;11.10;100.00;101272.69;10530582;28;20575;-81
2023/03/16 13:27:54;;;;;;;1.10;0.82;;;;;;;11.99;100.00;101291.53;10520835;28;20052;-83
2023/03/16 13:33:24;;;;;;;0.85;0.52;;;;;;;12.04;100.00;101284.78;10533633;28;20044;-80
2023/03/16 13:38:27;;;;;;;0.80;0.38;;;;;;;11.90;100.00;101271.50;10492575;28;20055;-82
2023/03/16 13:43:33;;;;;;;0.28;0.10;;;;;;;12.26;100.00;101256.91;10519771;28;20044;-82
2023/03/16 13:48:36;;;;;;;0.10;0.10;;;;;;;11.88;100.00;101254.19;10502306;28;20052;-81
2023/03/16 13:53:42;;;;;;;0.80;0.77;;;;;;;12.02;100.00;101252.00;10505938;28;20040;-82
2023/03/16 13:58:50;;;;;;;0.20;0.20;;;;;;;11.39;100.00;101231.41;10513565;28;20044;-79
2023/03/16 14:03:55;;;;;;;0.00;0.00;;;;;;;11.71;100.00;101218.50;10497729;28;20052;-80
2023/03/16 14:09:03;;;;;;;0.57;0.30;;;;;;;11.96;100.00;101224.28;10513739;28;20048;-80
2023/03/16 14:14:14;;;;;;;0.52;0.50;;;;;;;11.84;100.00;101213.63;10494993;28;20043;-81
2023/03/16 14:19:21;;;;;;;0.30;0.30;;;;;;;11.89;100.00;101202.59;10530562;28;20047;-82
2023/03/16 14:24:33;;;;;;;1.08;0.75;;;;;;;12.18;100.00;101194.72;10531286;28;20487;-81
2023/03/16 14:29:35;;;;;;;0.45;0.30;;;;;;;12.12;100.00;101180.78;10532351;28;20084;-81
2023/03/16 14:34:40;;;;;;;0.20;0.20;;;;;;;11.80;100.00;101192.03;10510671;28;20090;-77
2023/03/16 14:39:42;;;;;;;0.82;0.50;;;;;;;11.93;100.00;101174.25;10532320;28;20044;-77
2023/03/16 14:44:44;;;;;;;1.25;1.00;;;;;;;11.96;100.00;101170.03;10515219;28;20529;-76
2023/03/16 14:49:46;;;;;;;0.68;0.50;;;;;;;12.18;100.00;101149.94;10530392;28;20040;-77
2023/03/16 14:54:48;;;;;;;0.00;0.00;;;;;;;12.18;100.00;101142.19;10518428;28;20048;-76
2023/03/16 14:59:50;;;;;;;0.00;0.00;;;;;;;12.43;100.00;101146.22;10533267;28;20109;-75
2023/03/16 15:04:52;;;;;;;0.82;0.70;;;;;;;12.04;100.00;101144.47;10541581;28;20044;-77
2023/03/16 15:10:05;;;;;;;0.85;0.70;;;;;;;11.98;100.00;101140.00;10531281;28;20047;-76
2023/03/16 15:15:14;;;;;;;0.45;0.28;;;;;;;12.14;100.00;101135.22;10543571;28;20043;-76
2023/03/16 15:20:24;;;;;;;1.07;0.83;;;;;;;12.29;100.00;101135.56;10512603;28;20505;-77
2023/03/16 15:25:36;;;;;;;0.70;0.57;;;;;;;12.14;100.00;101124.88;10518320;28;20556;-78
2023/03/16 15:30:39;;;;;;;0.57;0.50;;;;;;;12.09;100.00;101121.34;10539214;28;20491;-77
2023/03/16 15:35:43;;;;;;;0.10;0.10;;;;;;;11.90;100.00;101120.84;10525958;28;20093;-77
2023/03/16 15:40:46;;;;;;;2.05;1.35;;;;;;;11.99;100.00;101113.34;10514014;28;20040;-77
2023/03/16 15:45:50;;;;;;;0.30;0.30;;;;;;;12.06;100.00;101097.16;10516049;28;20127;-78
2023/03/16 15:51:01;;;;;;;0.80;0.43;;;;;;;11.89;100.00;101081.25;10541609;28;20440;-78
2023/03/16 15:56:06;;;;;;;0.20;0.20;;;;;;;11.74;100.00;101074.00;10514587;28;20035;-76
2023/03/16 16:01:20;;;;;;;0.03;0.03;;;;;;;11.60;100.00;101070.22;10544954;28;20052;-77
2023/03/16 16:06:23;;;;;;;0.45;0.20;;;;;;;11.60;100.00;101077.97;10525614;28;20491;-76
2023/03/16 16:11:26;;;;;;;0.20;0.10;;;;;;;12.01;100.00;101072.97;10525727;28;20059;-76
2023/03/16 16:16:29;;;;;;;0.00;0.00;;;;;;;12.01;100.00;101067.81;10525788;28;20043;-77
2023/03/16 16:21:32;;;;;;;0.65;0.43;;;;;;;11.76;100.00;101076.66;10552000;27;20040;-76
2023/03/16 16:26:37;;;;;;;0.40;0.20;;;;;;;11.83;100.00;101067.31;10534499;28;20076;-76
2023/03/16 16:31:54;;;;;;;1.65;1.10;;;;;;;11.73;100.00;101056.78;10561372;27;20048;-76
2023/03/16 16:36:56;;;;;;;0.77;0.77;;;;;;;11.66;100.00;101065.22;10560333;28;20486;-76
2023/03/16 16:41:58;;;;;;;2.97;1.45;;;;;;;11.68;100.00;101050.66;10518521;28;20117;-76
2023/03/16 16:47:00;;;;;;;7.13;0.75;;;;;;;11.69;100.00;101057.56;10510849;28;20070;-77
2023/03/16 16:52:02;;;;;;;4.68;1.58;;;;;;;11.54;100.00;101049.44;10519004;28;20047;-81
2023/03/16 16:57:15;;;;;;;0.77;0.70;;;;;;;11.42;100.00;101055.16;10507202;28;20054;-82
2023/03/16 17:02:28;;;;;;;1.20;0.45;;;;;;;11.41;100.00;101059.47;10532270;28;20059;-81
2023/03/16 17:07:31;;;;;;;3.95;1.85;;;;;;;11.39;100.00;101060.28;10519996;28;20044;-82
2023/03/16 17:12:34;;;;;;;1.05;0.70;;;;;;;11.20;100.00;101064.09;10525572;28;20044;-83
2023/03/16 17:17:36;;;;;;;2.63;1.70;;;;;;;11.08;100.00;101057.75;10512558;28;20056;-83
2023/03/16 17:22:37;;;;;;;1.65;1.17;;;;;;;10.95;100.00;101064.28;10534198;28;20040;-83
2023/03/16 17:27:41;;;;;;;0.65;0.52;;;;;;;10.73;100.00;101060.28;10522576;28;20040;-83
2023/03/16 17:32:42;;;;;;;1.25;0.75;;;;;;;10.51;100.00;101070.81;10535121;28;20043;-82
2023/03/16 17:37:46;;;;;;;0.52;0.32;;;;;;;10.34;100.00;101068.56;10517879;28;20074;-83
2023/03/16 17:42:49;;;;;;;0.38;0.38;;;;;;;10.18;100.00;101071.50;10517123;28;20047;-83
2023/03/16 17:47:51;;;;;;;0.60;0.52;;;;;;;10.13;100.00;101073.94;10516398;28;20487;-83
2023/03/16 17:52:54;;;;;;;0.22;0.22;;;;;;;9.93;100.00;101068.19;10512793;28;20457;-83
2023/03/16 17:57:55;;;;;;;0.10;0.10;;;;;;;9.97;100.00;101064.88;10536061;28;20066;-77
2023/03/16 18:03:00;;;;;;;0.35;0.30;;;;;;;9.61;100.00;101062.91;10531278;28;20706;-78
2023/03/16 18:08:24;;;;;;;0.93;0.40;;;;;;;9.84;100.00;101066.19;10537143;28;20093;-77
2023/03/16 18:13:31;;;;;;;0.32;0.20;;;;;;;9.62;100.00;101086.09;10520541;28;20398;-78
2023/03/16 18:18:36;;;;;;;1.83;1.33;;;;;;;9.54;100.00;101077.25;10529367;28;20052;-78
2023/03/16 18:23:39;;;;;;;0.30;0.30;;;;;;;9.55;100.00;101079.00;10515189;28;20376;-78
2023/03/16 18:28:40;;;;;;;0.70;0.55;;;;;;;9.59;100.00;101065.44;10515862;28;20036;-77
2023/03/16 18:33:45;;;;;;;1.23;1.05;;;;;;;9.56;100.00;101065.31;10537526;28;20384;-78
2023/03/16 18:38:51;;;;;;;1.23;0.63;;;;;;;9.44;100.00;101060.63;10531868;28;20131;-77
2023/03/16 18:43:56;;;;;;;6.32;4.72;;;;;;;9.33;100.00;101059.41;10541081;28;20036;-79
2023/03/16 18:49:00;;;;;;;2.75;2.05;;;;;;;9.24;100.00;101061.69;10540643;28;20048;-79
2023/03/16 18:54:03;;;;;;;0.77;0.73;;;;;;;9.12;100.00;101052.72;10530708;28;20039;-78
2023/03/16 18:59:05;;;;;;;1.60;1.17;;;;;;;9.25;100.00;101056.56;10523098;28;20411;-78
2023/03/16 19:04:28;;;;;;;1.25;0.70;;;;;;;9.03;100.00;101052.41;10532495;28;20058;-78
2023/03/16 19:09:34;;;;;;;1.38;1.27;;;;;;;9.00;100.00;101052.28;10538528;28;20526;-78
2023/03/16 19:14:36;;;;;;;1.13;0.68;;;;;;;9.01;100.00;101060.03;10530556;28;20047;-78
2023/03/16 19:19:38;;;;;;;1.45;1.13;;;;;;;8.94;100.00;101054.66;10523158;28;20494;-78
2023/03/16 19:24:49;;;;;;;2.13;1.77;;;;;;;8.98;100.00;101044.53;10536711;28;20062;-77
2023/03/16 19:29:52;;;;;;;1.08;0.70;;;;;;;9.15;100.00;101032.25;10549423;28;20483;-78
2023/03/16 19:34:56;;;;;;;0.80;0.60;;;;;;;9.08;100.00;101029.44;10556209;28;20044;-77
2023/03/16 19:39:59;;;;;;;0.73;0.73;;;;;;;8.98;100.00;101023.09;10511164;28;20044;-78
2023/03/16 19:45:02;;;;;;;0.88;0.50;;;;;;;9.08;100.00;101014.88;10535154;28;20037;-79
2023/03/16 19:50:13;;;;;;;0.10;0.10;;;;;;;8.99;100.00;101014.56;10522597;28;20048;-78
2023/03/16 19:55:21;;;;;;;0.40;0.38;;;;;;;9.12;100.00;100990.16;10521816;28;20096;-78
2023/03/16 20:00:25;;;;;;;0.43;0.32;;;;;;;9.11;100.00;100989.28;10545855;28;20444;-76
2023/03/16 20:05:29;;;;;;;0.77;0.55;;;;;;;9.22;100.00;100987.09;10523400;28;20048;-75
2023/03/16 20:10:31;;;;;;;0.60;0.60;;;;;;;9.29;100.00;100991.59;10526264;28;20083;-77
2023/03/16 20:15:34;;;;;;;0.25;0.20;;;;;;;9.15;100.00;100983.44;10521736;28;20395;-77
2023/03/16 20:20:36;;;;;;;0.20;0.20;;;;;;;9.20;100.00;100983.56;10527282;28;20510;-77
2023/03/16 20:26:03;;;;;;;1.48;0.85;;;;;;;9.33;100.00;100975.44;10523696;28;20079;-78
2023/03/16 20:31:25;;;;;;;0.40;0.40;;;;;;;9.35;100.00;100970.34;10503472;28;20043;-78
2023/03/16 20:36:32;;;;;;;0.43;0.30;;;;;;;9.08;100.00;100971.19;10513682;28;20150;-77
2023/03/16 20:41:35;;;;;;;0.45;0.35;;;;;;;9.10;100.00;100949.00;10516724;28;20059;-78
2023/03/16 20:46:39;;;;;;;0.10;0.10;;;;;;;9.26;100.00;100946.91;10541379;28;20520;-77
2023/03/16 20:51:42;;;;;;;0.52;0.20;;;;;;;9.23;100.00;100946.81;10530405;28;20044;-77
2023/03/16 20:56:44;;;;;;;0.20;0.20;;;;;;;9.21;100.00;100959.63;10526543;28;20483;-80
2023/03/16 21:01:46;;;;;;;0.22;0.22;;;;;;;9.12;100.00;100955.03;10539771;28;20457;-78
2023/03/16 21:06:49;;;;;;;0.10;0.10;;;;;;;9.05;100.00;100942.81;10537690;28;20032;-77
2023/03/16 21:11:51;;;;;;;0.75;0.28;;;;;;;9.24;100.00;100922.84;10547069;28;20131;-77
2023/03/16 21:16:53;;;;;;;0.20;0.20;;;;;;;9.17;100.00;100921.78;10537859;28;20499;-78
2023/03/16 21:21:55;;;;;;;0.20;0.20;;;;;;;8.91;100.00;100923.50;10523674;28;20048;-77
2023/03/16 21:26:56;;;;;;;0.00;0.00;;;;;;;8.93;100.00;100919.28;10555021;28;20043;-78
2023/03/16 21:31:58;;;;;;;1.85;0.28;;;;;;;8.84;100.00;100923.28;10517270;28;20040;-78
2023/03/16 21:37:00;;;;;;;0.17;0.17;;;;;;;8.88;100.00;100908.84;10551429;28;20414;-77
2023/03/16 21:42:01;;;;;;;0.25;0.13;;;;;;;8.64;100.00;100924.34;10524025;28;20136;-78
2023/03/16 21:47:18;;;;;;;0.00;0.00;;;;;;;8.69;100.00;100917.66;10534961;28;20044;-78
2023/03/16 21:52:22;;;;;;;0.10;0.10;;;;;;;8.43;100.00;100930.44;10516908;28;20089;-77
2023/03/16 21:57:24;;;;;;;0.20;0.20;;;;;;;8.23;100.00;100927.16;10545634;28;20046;-77
2023/03/16 22:02:29;;;;;;;0.30;0.15;;;;;;;8.30;100.00;100912.88;10519425;28;20046;-77
2023/03/16 22:07:31;;;;;;;0.10;0.10;;;;;;;8.41;100.00;100897.00;10524021;28;20039;-77
2023/03/16 22:12:32;;;;;;;0.00;0.00;;;;;;;8.10;100.00;100915.56;10524047;28;20505;-77
2023/03/16 22:17:35;;;;;;;0.00;0.00;;;;;;;7.97;100.00;100911.69;10525924;28;20097;-78
2023/03/16 22:22:37;;;;;;;0.22;0.17;;;;;;;8.08;100.00;100895.00;10522595;28;20415;-77
2023/03/16 22:27:38;;;;;;;0.10;0.10;;;;;;;7.98;100.00;100903.16;10538023;28;20097;-77
2023/03/16 22:32:40;;;;;;;0.10;0.10;;;;;;;8.01;100.00;100894.72;10540483;28;20052;-77
2023/03/16 22:37:42;;;;;;;0.08;0.08;;;;;;;8.11;100.00;100896.81;10549955;28;20047;-77
2023/03/16 22:42:45;;;;;;;0.43;0.30;;;;;;;7.87;100.00;100884.81;10537681;28;20059;-79
2023/03/16 22:47:47;;;;;;;0.13;0.08;;;;;;;7.97;100.00;100862.06;10525656;28;20541;-77
2023/03/16 22:52:51;;;;;;;0.10;0.00;;;;;;;7.89;100.00;100869.50;10520598;28;20055;-77
2023/03/16 22:58:06;;;;;;;0.40;0.38;;;;;;;7.76;100.00;100873.31;10547938;28;20052;-77
2023/03/16 23:03:18;;;;;;;0.10;0.10;;;;;;;7.86;100.00;100865.13;10522077;28;20051;-77
2023/03/16 23:08:22;;;;;;;0.25;0.10;;;;;;;7.83;100.00;100865.03;10536371;28;20040;-78
2023/03/16 23:13:24;;;;;;;0.00;0.00;;;;;;;7.93;100.00;100869.66;10536378;28;20044;-78
2023/03/16 23:18:29;;;;;;;0.43;0.40;;;;;;;7.53;100.00;100875.88;10559256;28;20043;-79
2023/03/16 23:23:31;;;;;;;0.35;0.20;;;;;;;7.51;100.00;100872.38;10556717;28;20048;-78